sensor_id;sensor_type;location;lat;lon;timestamp;P1;durP1;ratioP1;P2;durP2;ratioP2
72275;SDS011;61204;49.980;8.358;2024-03-29T00:01:32;4.78;;;2.00;;
72275;SDS011;61204;49.980;8.358;2024-03-29T00:03:58;5.25;;;1.90;;
72275;SDS011;61204;49.980;8.358;2024-03-29T00:06:23;3.85;;;1.70;;
72275;SDS011;61204;49.980;8.358;2024-03-29T00:08:49;4.00;;;2.22;;
72275;SDS011;61204;49.980;8.358;2024-03-29T00:11:15;3.30;;;1.35;;
72275;SDS011;61204;49.980;8.358;2024-03-29T00:13:40;4.07;;;1.63;;
72275;SDS011;61204;49.980;8.358;2024-03-29T00:16:06;2.67;;;1.52;;
72275;SDS011;61204;49.980;8.358;2024-03-29T00:18:32;7.68;;;2.03;;
72275;SDS011;61204;49.980;8.358;2024-03-29T00:20:58;6.82;;;1.77;;
72275;SDS011;61204;49.980;8.358;2024-03-29T00:23:23;3.58;;;1.70;;
72275;SDS011;61204;49.980;8.358;2024-03-29T00:25:49;4.65;;;1.33;;
72275;SDS011;61204;49.980;8.358;2024-03-29T00:28:14;5.63;;;1.73;;
72275;SDS011;61204;49.980;8.358;2024-03-29T00:30:40;6.30;;;1.73;;
72275;SDS011;61204;49.980;8.358;2024-03-29T00:33:05;3.65;;;1.58;;
72275;SDS011;61204;49.980;8.358;2024-03-29T00:35:31;4.20;;;1.40;;
72275;SDS011;61204;49.980;8.358;2024-03-29T00:37:56;3.60;;;1.50;;
72275;SDS011;61204;49.980;8.358;2024-03-29T00:40:24;6.25;;;1.63;;
72275;SDS011;61204;49.980;8.358;2024-03-29T00:42:49;5.45;;;1.50;;
72275;SDS011;61204;49.980;8.358;2024-03-29T00:45:15;2.10;;;1.30;;
72275;SDS011;61204;49.980;8.358;2024-03-29T00:47:41;5.60;;;1.50;;
72275;SDS011;61204;49.980;8.358;2024-03-29T00:50:08;4.20;;;1.70;;
72275;SDS011;61204;49.980;8.358;2024-03-29T00:52:34;5.47;;;1.70;;
72275;SDS011;61204;49.980;8.358;2024-03-29T00:55:01;4.60;;;2.05;;
72275;SDS011;61204;49.980;8.358;2024-03-29T00:57:30;6.90;;;1.65;;
72275;SDS011;61204;49.980;8.358;2024-03-29T00:59:55;3.85;;;2.00;;
72275;SDS011;61204;49.980;8.358;2024-03-29T01:02:24;3.92;;;1.88;;
72275;SDS011;61204;49.980;8.358;2024-03-29T01:04:50;5.85;;;1.63;;
72275;SDS011;61204;49.980;8.358;2024-03-29T01:07:15;8.93;;;2.33;;
72275;SDS011;61204;49.980;8.358;2024-03-29T01:09:42;5.07;;;2.47;;
72275;SDS011;61204;49.980;8.358;2024-03-29T01:12:09;4.47;;;1.83;;
72275;SDS011;61204;49.980;8.358;2024-03-29T01:14:35;3.78;;;2.00;;
72275;SDS011;61204;49.980;8.358;2024-03-29T01:17:03;3.83;;;1.85;;
72275;SDS011;61204;49.980;8.358;2024-03-29T01:19:29;9.30;;;4.25;;
72275;SDS011;61204;49.980;8.358;2024-03-29T01:21:54;4.25;;;2.00;;
72275;SDS011;61204;49.980;8.358;2024-03-29T01:24:20;3.72;;;1.75;;
72275;SDS011;61204;49.980;8.358;2024-03-29T01:26:46;5.35;;;1.73;;
72275;SDS011;61204;49.980;8.358;2024-03-29T01:29:11;6.50;;;2.00;;
72275;SDS011;61204;49.980;8.358;2024-03-29T01:31:37;2.80;;;1.70;;
72275;SDS011;61204;49.980;8.358;2024-03-29T01:34:02;4.88;;;1.77;;
72275;SDS011;61204;49.980;8.358;2024-03-29T01:36:28;4.43;;;1.63;;
72275;SDS011;61204;49.980;8.358;2024-03-29T01:38:54;2.85;;;1.58;;
72275;SDS011;61204;49.980;8.358;2024-03-29T01:41:22;5.22;;;1.60;;
72275;SDS011;61204;49.980;8.358;2024-03-29T01:43:49;5.55;;;1.75;;
72275;SDS011;61204;49.980;8.358;2024-03-29T01:46:16;4.03;;;1.48;;
72275;SDS011;61204;49.980;8.358;2024-03-29T01:48:46;5.50;;;2.35;;
72275;SDS011;61204;49.980;8.358;2024-03-29T01:51:11;4.10;;;2.08;;
72275;SDS011;61204;49.980;8.358;2024-03-29T01:53:40;4.38;;;1.35;;
72275;SDS011;61204;49.980;8.358;2024-03-29T01:56:07;5.47;;;1.70;;
72275;SDS011;61204;49.980;8.358;2024-03-29T01:58:34;3.55;;;1.45;;
72275;SDS011;61204;49.980;8.358;2024-03-29T02:01:00;4.32;;;1.55;;
72275;SDS011;61204;49.980;8.358;2024-03-29T02:03:27;1.98;;;1.50;;
72275;SDS011;61204;49.980;8.358;2024-03-29T02:05:55;3.17;;;1.40;;
72275;SDS011;61204;49.980;8.358;2024-03-29T02:08:22;3.67;;;1.40;;
72275;SDS011;61204;49.980;8.358;2024-03-29T02:10:48;5.43;;;1.25;;
72275;SDS011;61204;49.980;8.358;2024-03-29T02:13:16;5.15;;;1.58;;
72275;SDS011;61204;49.980;8.358;2024-03-29T02:15:42;3.25;;;1.60;;
72275;SDS011;61204;49.980;8.358;2024-03-29T02:18:07;4.72;;;1.40;;
72275;SDS011;61204;49.980;8.358;2024-03-29T02:20:33;9.23;;;2.00;;
72275;SDS011;61204;49.980;8.358;2024-03-29T02:23:08;5.65;;;1.63;;
72275;SDS011;61204;49.980;8.358;2024-03-29T02:25:39;3.80;;;1.60;;
72275;SDS011;61204;49.980;8.358;2024-03-29T02:28:05;2.25;;;1.25;;
72275;SDS011;61204;49.980;8.358;2024-03-29T02:30:31;2.60;;;1.60;;
72275;SDS011;61204;49.980;8.358;2024-03-29T02:32:57;3.97;;;1.73;;
72275;SDS011;61204;49.980;8.358;2024-03-29T02:35:24;4.85;;;1.90;;
72275;SDS011;61204;49.980;8.358;2024-03-29T02:37:51;3.78;;;1.60;;
72275;SDS011;61204;49.980;8.358;2024-03-29T02:40:17;3.97;;;1.80;;
72275;SDS011;61204;49.980;8.358;2024-03-29T02:42:47;4.80;;;1.85;;
72275;SDS011;61204;49.980;8.358;2024-03-29T02:45:14;3.95;;;1.60;;
72275;SDS011;61204;49.980;8.358;2024-03-29T02:47:41;2.85;;;1.48;;
72275;SDS011;61204;49.980;8.358;2024-03-29T02:50:08;4.75;;;1.70;;
72275;SDS011;61204;49.980;8.358;2024-03-29T02:52:40;5.15;;;1.40;;
72275;SDS011;61204;49.980;8.358;2024-03-29T02:55:06;4.93;;;1.58;;
72275;SDS011;61204;49.980;8.358;2024-03-29T02:57:32;5.90;;;1.63;;
72275;SDS011;61204;49.980;8.358;2024-03-29T02:59:57;4.32;;;1.77;;
72275;SDS011;61204;49.980;8.358;2024-03-29T03:02:25;2.80;;;1.52;;
72275;SDS011;61204;49.980;8.358;2024-03-29T03:04:50;5.03;;;1.48;;
72275;SDS011;61204;49.980;8.358;2024-03-29T03:07:19;3.30;;;1.48;;
72275;SDS011;61204;49.980;8.358;2024-03-29T03:10:03;2.88;;;1.15;;
72275;SDS011;61204;49.980;8.358;2024-03-29T03:12:50;2.60;;;1.33;;
72275;SDS011;61204;49.980;8.358;2024-03-29T03:15:16;4.05;;;1.33;;
72275;SDS011;61204;49.980;8.358;2024-03-29T03:17:41;2.50;;;1.23;;
72275;SDS011;61204;49.980;8.358;2024-03-29T03:20:09;6.50;;;1.58;;
72275;SDS011;61204;49.980;8.358;2024-03-29T03:22:38;4.38;;;1.60;;
72275;SDS011;61204;49.980;8.358;2024-03-29T03:25:04;5.22;;;1.38;;
72275;SDS011;61204;49.980;8.358;2024-03-29T03:27:30;2.83;;;1.88;;
72275;SDS011;61204;49.980;8.358;2024-03-29T03:29:56;2.53;;;1.33;;
72275;SDS011;61204;49.980;8.358;2024-03-29T03:32:21;2.97;;;1.80;;
72275;SDS011;61204;49.980;8.358;2024-03-29T03:34:47;3.60;;;1.38;;
72275;SDS011;61204;49.980;8.358;2024-03-29T03:37:13;4.40;;;2.30;;
72275;SDS011;61204;49.980;8.358;2024-03-29T03:39:38;1.95;;;1.30;;
72275;SDS011;61204;49.980;8.358;2024-03-29T03:42:04;1.58;;;1.10;;
72275;SDS011;61204;49.980;8.358;2024-03-29T03:44:30;4.20;;;1.50;;
72275;SDS011;61204;49.980;8.358;2024-03-29T03:46:57;4.47;;;1.70;;
72275;SDS011;61204;49.980;8.358;2024-03-29T03:49:23;4.00;;;1.35;;
72275;SDS011;61204;49.980;8.358;2024-03-29T03:51:49;4.25;;;1.30;;
72275;SDS011;61204;49.980;8.358;2024-03-29T03:54:14;2.78;;;1.23;;
72275;SDS011;61204;49.980;8.358;2024-03-29T03:56:40;4.72;;;1.38;;
72275;SDS011;61204;49.980;8.358;2024-03-29T03:59:05;2.88;;;1.38;;
72275;SDS011;61204;49.980;8.358;2024-03-29T04:01:31;2.47;;;1.70;;
72275;SDS011;61204;49.980;8.358;2024-03-29T04:03:57;7.28;;;1.60;;
72275;SDS011;61204;49.980;8.358;2024-03-29T04:06:25;3.03;;;1.40;;
72275;SDS011;61204;49.980;8.358;2024-03-29T04:08:55;4.20;;;2.45;;
72275;SDS011;61204;49.980;8.358;2024-03-29T04:11:20;2.17;;;1.55;;
72275;SDS011;61204;49.980;8.358;2024-03-29T04:13:46;4.53;;;1.52;;
72275;SDS011;61204;49.980;8.358;2024-03-29T04:16:11;7.00;;;1.50;;
72275;SDS011;61204;49.980;8.358;2024-03-29T04:18:39;4.82;;;1.70;;
72275;SDS011;61204;49.980;8.358;2024-03-29T04:21:05;3.92;;;1.35;;
72275;SDS011;61204;49.980;8.358;2024-03-29T04:23:31;3.50;;;1.75;;
72275;SDS011;61204;49.980;8.358;2024-03-29T04:25:57;2.85;;;1.52;;
72275;SDS011;61204;49.980;8.358;2024-03-29T04:28:25;4.88;;;1.42;;
72275;SDS011;61204;49.980;8.358;2024-03-29T04:33:26;4.40;;;1.95;;
72275;SDS011;61204;49.980;8.358;2024-03-29T04:35:56;3.53;;;1.38;;
72275;SDS011;61204;49.980;8.358;2024-03-29T04:38:30;5.95;;;2.10;;
72275;SDS011;61204;49.980;8.358;2024-03-29T04:40:57;3.05;;;1.40;;
72275;SDS011;61204;49.980;8.358;2024-03-29T04:43:27;4.78;;;1.73;;
72275;SDS011;61204;49.980;8.358;2024-03-29T04:46:04;6.10;;;1.77;;
72275;SDS011;61204;49.980;8.358;2024-03-29T04:48:36;2.22;;;1.40;;
72275;SDS011;61204;49.980;8.358;2024-03-29T04:51:07;3.80;;;1.52;;
72275;SDS011;61204;49.980;8.358;2024-03-29T04:53:37;3.25;;;1.42;;
72275;SDS011;61204;49.980;8.358;2024-03-29T04:56:04;4.45;;;1.58;;
72275;SDS011;61204;49.980;8.358;2024-03-29T04:58:31;5.85;;;1.60;;
72275;SDS011;61204;49.980;8.358;2024-03-29T05:00:57;6.25;;;1.55;;
72275;SDS011;61204;49.980;8.358;2024-03-29T05:03:23;5.40;;;1.80;;
72275;SDS011;61204;49.980;8.358;2024-03-29T05:05:49;3.45;;;1.90;;
72275;SDS011;61204;49.980;8.358;2024-03-29T05:08:17;6.78;;;1.73;;
72275;SDS011;61204;49.980;8.358;2024-03-29T05:10:47;4.60;;;1.80;;
72275;SDS011;61204;49.980;8.358;2024-03-29T05:13:15;4.60;;;2.00;;
72275;SDS011;61204;49.980;8.358;2024-03-29T05:15:42;3.78;;;1.48;;
72275;SDS011;61204;49.980;8.358;2024-03-29T05:18:08;3.95;;;1.85;;
72275;SDS011;61204;49.980;8.358;2024-03-29T05:20:34;3.25;;;1.55;;
72275;SDS011;61204;49.980;8.358;2024-03-29T05:22:59;8.07;;;1.95;;
72275;SDS011;61204;49.980;8.358;2024-03-29T05:25:25;4.10;;;1.50;;
72275;SDS011;61204;49.980;8.358;2024-03-29T05:27:52;3.05;;;1.77;;
72275;SDS011;61204;49.980;8.358;2024-03-29T05:30:18;7.70;;;1.67;;
72275;SDS011;61204;49.980;8.358;2024-03-29T05:32:44;5.35;;;2.08;;
72275;SDS011;61204;49.980;8.358;2024-03-29T05:35:10;3.22;;;1.90;;
72275;SDS011;61204;49.980;8.358;2024-03-29T05:37:36;4.05;;;1.77;;
72275;SDS011;61204;49.980;8.358;2024-03-29T05:40:02;5.10;;;1.73;;
72275;SDS011;61204;49.980;8.358;2024-03-29T05:42:31;4.25;;;1.70;;
72275;SDS011;61204;49.980;8.358;2024-03-29T05:45:03;5.45;;;1.90;;
72275;SDS011;61204;49.980;8.358;2024-03-29T05:47:30;5.60;;;1.60;;
72275;SDS011;61204;49.980;8.358;2024-03-29T05:49:56;2.75;;;1.52;;
72275;SDS011;61204;49.980;8.358;2024-03-29T05:52:22;7.28;;;1.80;;
72275;SDS011;61204;49.980;8.358;2024-03-29T05:54:48;4.25;;;1.40;;
72275;SDS011;61204;49.980;8.358;2024-03-29T05:57:14;1.55;;;1.13;;
72275;SDS011;61204;49.980;8.358;2024-03-29T05:59:40;3.25;;;1.45;;
72275;SDS011;61204;49.980;8.358;2024-03-29T06:02:06;5.45;;;1.90;;
72275;SDS011;61204;49.980;8.358;2024-03-29T06:04:32;3.08;;;1.50;;
72275;SDS011;61204;49.980;8.358;2024-03-29T06:07:01;2.58;;;1.20;;
72275;SDS011;61204;49.980;8.358;2024-03-29T06:09:28;5.63;;;1.35;;
72275;SDS011;61204;49.980;8.358;2024-03-29T06:11:55;4.10;;;1.40;;
72275;SDS011;61204;49.980;8.358;2024-03-29T06:14:25;1.80;;;1.27;;
72275;SDS011;61204;49.980;8.358;2024-03-29T06:17:10;3.67;;;1.23;;
72275;SDS011;61204;49.980;8.358;2024-03-29T06:19:48;2.13;;;1.40;;
72275;SDS011;61204;49.980;8.358;2024-03-29T06:22:21;1.95;;;1.30;;
72275;SDS011;61204;49.980;8.358;2024-03-29T06:24:54;3.45;;;1.40;;
72275;SDS011;61204;49.980;8.358;2024-03-29T06:27:24;4.45;;;1.70;;
72275;SDS011;61204;49.980;8.358;2024-03-29T06:29:50;2.45;;;1.30;;
72275;SDS011;61204;49.980;8.358;2024-03-29T06:32:16;2.65;;;1.27;;
72275;SDS011;61204;49.980;8.358;2024-03-29T06:34:43;6.30;;;1.55;;
72275;SDS011;61204;49.980;8.358;2024-03-29T06:37:12;3.75;;;1.38;;
72275;SDS011;61204;49.980;8.358;2024-03-29T06:39:38;3.40;;;1.33;;
72275;SDS011;61204;49.980;8.358;2024-03-29T06:42:04;2.63;;;1.63;;
72275;SDS011;61204;49.980;8.358;2024-03-29T06:44:33;3.85;;;1.35;;
72275;SDS011;61204;49.980;8.358;2024-03-29T06:47:00;3.92;;;1.00;;
72275;SDS011;61204;49.980;8.358;2024-03-29T06:49:26;3.78;;;1.60;;
72275;SDS011;61204;49.980;8.358;2024-03-29T06:51:51;2.70;;;1.27;;
72275;SDS011;61204;49.980;8.358;2024-03-29T06:54:18;3.08;;;1.58;;
72275;SDS011;61204;49.980;8.358;2024-03-29T06:56:47;3.72;;;1.38;;
72275;SDS011;61204;49.980;8.358;2024-03-29T06:59:15;2.88;;;1.35;;
72275;SDS011;61204;49.980;8.358;2024-03-29T07:01:41;4.93;;;1.20;;
72275;SDS011;61204;49.980;8.358;2024-03-29T07:04:09;2.20;;;1.33;;
72275;SDS011;61204;49.980;8.358;2024-03-29T07:06:34;1.92;;;1.10;;
72275;SDS011;61204;49.980;8.358;2024-03-29T07:09:02;2.42;;;1.27;;
72275;SDS011;61204;49.980;8.358;2024-03-29T07:11:28;2.33;;;1.30;;
72275;SDS011;61204;49.980;8.358;2024-03-29T07:13:54;2.42;;;1.15;;
72275;SDS011;61204;49.980;8.358;2024-03-29T07:16:19;5.10;;;1.38;;
72275;SDS011;61204;49.980;8.358;2024-03-29T07:18:45;3.17;;;1.55;;
72275;SDS011;61204;49.980;8.358;2024-03-29T07:21:11;2.00;;;1.40;;
72275;SDS011;61204;49.980;8.358;2024-03-29T07:23:36;1.88;;;1.40;;
72275;SDS011;61204;49.980;8.358;2024-03-29T07:26:03;2.40;;;1.33;;
72275;SDS011;61204;49.980;8.358;2024-03-29T07:28:30;2.50;;;1.30;;
72275;SDS011;61204;49.980;8.358;2024-03-29T07:30:57;5.40;;;1.90;;
72275;SDS011;61204;49.980;8.358;2024-03-29T07:33:29;4.68;;;1.38;;
72275;SDS011;61204;49.980;8.358;2024-03-29T07:35:55;2.20;;;1.55;;
72275;SDS011;61204;49.980;8.358;2024-03-29T07:38:21;2.47;;;1.90;;
72275;SDS011;61204;49.980;8.358;2024-03-29T07:40:48;4.43;;;2.15;;
72275;SDS011;61204;49.980;8.358;2024-03-29T07:43:21;3.95;;;2.22;;
72275;SDS011;61204;49.980;8.358;2024-03-29T07:45:47;3.53;;;2.42;;
72275;SDS011;61204;49.980;8.358;2024-03-29T07:48:14;4.65;;;2.13;;
72275;SDS011;61204;49.980;8.358;2024-03-29T07:50:43;2.97;;;2.05;;
72275;SDS011;61204;49.980;8.358;2024-03-29T07:53:11;3.45;;;1.85;;
72275;SDS011;61204;49.980;8.358;2024-03-29T07:55:40;4.22;;;1.90;;
72275;SDS011;61204;49.980;8.358;2024-03-29T07:58:06;4.00;;;1.92;;
72275;SDS011;61204;49.980;8.358;2024-03-29T08:00:34;3.25;;;1.80;;
72275;SDS011;61204;49.980;8.358;2024-03-29T08:03:00;5.20;;;2.13;;
72275;SDS011;61204;49.980;8.358;2024-03-29T08:05:27;6.40;;;1.80;;
72275;SDS011;61204;49.980;8.358;2024-03-29T08:07:55;3.60;;;1.98;;
72275;SDS011;61204;49.980;8.358;2024-03-29T08:10:21;5.25;;;2.00;;
72275;SDS011;61204;49.980;8.358;2024-03-29T08:12:46;3.22;;;1.70;;
72275;SDS011;61204;49.980;8.358;2024-03-29T08:15:12;4.60;;;2.30;;
72275;SDS011;61204;49.980;8.358;2024-03-29T08:17:38;4.63;;;3.47;;
72275;SDS011;61204;49.980;8.358;2024-03-29T08:20:04;5.15;;;3.53;;
72275;SDS011;61204;49.980;8.358;2024-03-29T08:22:30;5.15;;;3.35;;
72275;SDS011;61204;49.980;8.358;2024-03-29T08:24:58;4.97;;;2.00;;
72275;SDS011;61204;49.980;8.358;2024-03-29T08:27:27;2.35;;;1.67;;
72275;SDS011;61204;49.980;8.358;2024-03-29T08:29:53;3.75;;;2.35;;
72275;SDS011;61204;49.980;8.358;2024-03-29T08:32:19;3.92;;;2.72;;
72275;SDS011;61204;49.980;8.358;2024-03-29T08:34:46;8.73;;;2.80;;
72275;SDS011;61204;49.980;8.358;2024-03-29T08:37:11;4.40;;;2.42;;
72275;SDS011;61204;49.980;8.358;2024-03-29T08:39:37;4.35;;;2.72;;
72275;SDS011;61204;49.980;8.358;2024-03-29T08:42:07;3.40;;;2.55;;
72275;SDS011;61204;49.980;8.358;2024-03-29T08:44:36;5.82;;;2.60;;
72275;SDS011;61204;49.980;8.358;2024-03-29T08:47:04;6.90;;;3.55;;
72275;SDS011;61204;49.980;8.358;2024-03-29T08:49:30;3.72;;;2.50;;
72275;SDS011;61204;49.980;8.358;2024-03-29T08:51:56;4.85;;;2.63;;
72275;SDS011;61204;49.980;8.358;2024-03-29T08:54:26;4.03;;;2.40;;
72275;SDS011;61204;49.980;8.358;2024-03-29T08:56:53;6.53;;;3.03;;
72275;SDS011;61204;49.980;8.358;2024-03-29T08:59:18;5.95;;;2.80;;
72275;SDS011;61204;49.980;8.358;2024-03-29T09:01:44;5.32;;;2.45;;
72275;SDS011;61204;49.980;8.358;2024-03-29T09:04:14;5.10;;;2.63;;
72275;SDS011;61204;49.980;8.358;2024-03-29T09:06:42;5.75;;;2.72;;
72275;SDS011;61204;49.980;8.358;2024-03-29T09:09:10;5.05;;;2.45;;
72275;SDS011;61204;49.980;8.358;2024-03-29T09:11:36;4.75;;;2.33;;
72275;SDS011;61204;49.980;8.358;2024-03-29T09:14:02;6.38;;;2.70;;
72275;SDS011;61204;49.980;8.358;2024-03-29T09:16:29;5.50;;;2.25;;
72275;SDS011;61204;49.980;8.358;2024-03-29T09:18:59;5.47;;;3.20;;
72275;SDS011;61204;49.980;8.358;2024-03-29T09:21:27;3.17;;;2.17;;
72275;SDS011;61204;49.980;8.358;2024-03-29T09:23:53;7.90;;;2.53;;
72275;SDS011;61204;49.980;8.358;2024-03-29T09:26:20;3.35;;;2.47;;
72275;SDS011;61204;49.980;8.358;2024-03-29T09:28:45;6.13;;;2.50;;
72275;SDS011;61204;49.980;8.358;2024-03-29T09:31:11;4.20;;;2.92;;
72275;SDS011;61204;49.980;8.358;2024-03-29T09:33:36;4.65;;;2.65;;
72275;SDS011;61204;49.980;8.358;2024-03-29T09:36:02;5.60;;;2.75;;
72275;SDS011;61204;49.980;8.358;2024-03-29T09:38:28;4.72;;;3.10;;
72275;SDS011;61204;49.980;8.358;2024-03-29T09:43:41;9.88;;;3.13;;
72275;SDS011;61204;49.980;8.358;2024-03-29T09:46:12;7.32;;;3.03;;
72275;SDS011;61204;49.980;8.358;2024-03-29T09:48:40;4.80;;;3.50;;
72275;SDS011;61204;49.980;8.358;2024-03-29T09:51:10;5.53;;;3.38;;
72275;SDS011;61204;49.980;8.358;2024-03-29T09:53:41;5.20;;;2.85;;
72275;SDS011;61204;49.980;8.358;2024-03-29T09:56:09;5.18;;;3.25;;
72275;SDS011;61204;49.980;8.358;2024-03-29T09:58:35;5.90;;;3.08;;
72275;SDS011;61204;49.980;8.358;2024-03-29T10:01:07;6.35;;;3.28;;
72275;SDS011;61204;49.980;8.358;2024-03-29T10:03:36;8.32;;;3.28;;
72275;SDS011;61204;49.980;8.358;2024-03-29T10:06:15;4.22;;;2.67;;
72275;SDS011;61204;49.980;8.358;2024-03-29T10:08:44;5.22;;;2.20;;
72275;SDS011;61204;49.980;8.358;2024-03-29T10:11:11;5.20;;;2.63;;
72275;SDS011;61204;49.980;8.358;2024-03-29T10:13:41;4.13;;;2.30;;
72275;SDS011;61204;49.980;8.358;2024-03-29T10:16:10;6.65;;;2.45;;
72275;SDS011;61204;49.980;8.358;2024-03-29T10:18:36;6.78;;;2.78;;
72275;SDS011;61204;49.980;8.358;2024-03-29T10:21:02;5.00;;;2.80;;
72275;SDS011;61204;49.980;8.358;2024-03-29T10:23:33;7.18;;;2.67;;
72275;SDS011;61204;49.980;8.358;2024-03-29T10:26:01;3.80;;;2.45;;
72275;SDS011;61204;49.980;8.358;2024-03-29T10:28:32;6.28;;;3.00;;
72275;SDS011;61204;49.980;8.358;2024-03-29T10:31:02;3.33;;;2.15;;
72275;SDS011;61204;49.980;8.358;2024-03-29T10:33:31;6.80;;;2.13;;
72275;SDS011;61204;49.980;8.358;2024-03-29T10:36:00;2.80;;;2.00;;
72275;SDS011;61204;49.980;8.358;2024-03-29T10:38:31;3.08;;;1.90;;
72275;SDS011;61204;49.980;8.358;2024-03-29T10:40:57;4.93;;;1.88;;
72275;SDS011;61204;49.980;8.358;2024-03-29T10:43:22;3.38;;;1.52;;
72275;SDS011;61204;49.980;8.358;2024-03-29T10:45:52;1.77;;;1.42;;
72275;SDS011;61204;49.980;8.358;2024-03-29T10:48:24;3.65;;;1.60;;
72275;SDS011;61204;49.980;8.358;2024-03-29T10:50:54;2.05;;;1.30;;
72275;SDS011;61204;49.980;8.358;2024-03-29T10:53:22;3.40;;;1.30;;
72275;SDS011;61204;49.980;8.358;2024-03-29T10:55:58;1.75;;;1.00;;
72275;SDS011;61204;49.980;8.358;2024-03-29T10:58:29;2.72;;;1.17;;
72275;SDS011;61204;49.980;8.358;2024-03-29T11:01:00;2.08;;;0.98;;
72275;SDS011;61204;49.980;8.358;2024-03-29T11:03:48;3.88;;;1.17;;
72275;SDS011;61204;49.980;8.358;2024-03-29T11:06:28;3.15;;;1.30;;
72275;SDS011;61204;49.980;8.358;2024-03-29T11:08:57;3.47;;;1.10;;
72275;SDS011;61204;49.980;8.358;2024-03-29T11:11:26;3.40;;;1.35;;
72275;SDS011;61204;49.980;8.358;2024-03-29T11:14:02;2.17;;;1.30;;
72275;SDS011;61204;49.980;8.358;2024-03-29T11:16:35;1.35;;;1.00;;
72275;SDS011;61204;49.980;8.358;2024-03-29T11:19:02;2.05;;;1.00;;
72275;SDS011;61204;49.980;8.358;2024-03-29T11:21:30;2.22;;;1.30;;
72275;SDS011;61204;49.980;8.358;2024-03-29T11:23:57;1.80;;;1.02;;
72275;SDS011;61204;49.980;8.358;2024-03-29T11:26:26;1.50;;;1.00;;
72275;SDS011;61204;49.980;8.358;2024-03-29T11:28:53;1.65;;;1.05;;
72275;SDS011;61204;49.980;8.358;2024-03-29T11:31:23;5.05;;;1.45;;
72275;SDS011;61204;49.980;8.358;2024-03-29T11:33:50;2.33;;;1.52;;
72275;SDS011;61204;49.980;8.358;2024-03-29T11:36:23;2.40;;;1.65;;
72275;SDS011;61204;49.980;8.358;2024-03-29T11:38:57;3.53;;;1.23;;
72275;SDS011;61204;49.980;8.358;2024-03-29T11:41:24;3.00;;;1.40;;
72275;SDS011;61204;49.980;8.358;2024-03-29T11:43:55;2.28;;;1.25;;
72275;SDS011;61204;49.980;8.358;2024-03-29T11:46:22;3.65;;;1.55;;
72275;SDS011;61204;49.980;8.358;2024-03-29T11:48:53;2.45;;;1.20;;
72275;SDS011;61204;49.980;8.358;2024-03-29T11:51:20;2.97;;;1.73;;
72275;SDS011;61204;49.980;8.358;2024-03-29T11:53:49;8.15;;;2.60;;
72275;SDS011;61204;49.980;8.358;2024-03-29T11:56:19;8.30;;;2.13;;
72275;SDS011;61204;49.980;8.358;2024-03-29T11:58:48;4.50;;;1.92;;
72275;SDS011;61204;49.980;8.358;2024-03-29T12:01:14;4.15;;;2.40;;
72275;SDS011;61204;49.980;8.358;2024-03-29T12:03:41;4.93;;;1.85;;
72275;SDS011;61204;49.980;8.358;2024-03-29T12:06:08;4.32;;;2.42;;
72275;SDS011;61204;49.980;8.358;2024-03-29T12:08:37;4.43;;;2.20;;
72275;SDS011;61204;49.980;8.358;2024-03-29T12:11:07;4.43;;;2.10;;
72275;SDS011;61204;49.980;8.358;2024-03-29T12:13:34;4.63;;;1.88;;
72275;SDS011;61204;49.980;8.358;2024-03-29T12:16:00;2.92;;;1.80;;
72275;SDS011;61204;49.980;8.358;2024-03-29T12:18:28;7.07;;;2.40;;
72275;SDS011;61204;49.980;8.358;2024-03-29T12:20:57;3.10;;;1.88;;
72275;SDS011;61204;49.980;8.358;2024-03-29T12:23:23;4.03;;;2.00;;
72275;SDS011;61204;49.980;8.358;2024-03-29T12:25:49;3.42;;;2.13;;
72275;SDS011;61204;49.980;8.358;2024-03-29T12:28:22;6.00;;;2.30;;
72275;SDS011;61204;49.980;8.358;2024-03-29T12:30:52;3.47;;;2.28;;
72275;SDS011;61204;49.980;8.358;2024-03-29T12:33:22;2.53;;;2.08;;
72275;SDS011;61204;49.980;8.358;2024-03-29T12:35:49;3.17;;;2.10;;
72275;SDS011;61204;49.980;8.358;2024-03-29T12:38:19;5.32;;;2.10;;
72275;SDS011;61204;49.980;8.358;2024-03-29T12:40:48;4.25;;;2.25;;
72275;SDS011;61204;49.980;8.358;2024-03-29T12:43:22;4.55;;;2.22;;
72275;SDS011;61204;49.980;8.358;2024-03-29T12:45:51;4.00;;;3.00;;
72275;SDS011;61204;49.980;8.358;2024-03-29T12:48:19;5.53;;;2.47;;
72275;SDS011;61204;49.980;8.358;2024-03-29T12:50:50;5.00;;;2.53;;
72275;SDS011;61204;49.980;8.358;2024-03-29T12:53:18;4.60;;;2.60;;
72275;SDS011;61204;49.980;8.358;2024-03-29T12:55:44;3.40;;;2.30;;
72275;SDS011;61204;49.980;8.358;2024-03-29T12:58:13;7.57;;;2.42;;
72275;SDS011;61204;49.980;8.358;2024-03-29T13:00:47;2.75;;;1.92;;
72275;SDS011;61204;49.980;8.358;2024-03-29T13:03:12;3.75;;;2.20;;
72275;SDS011;61204;49.980;8.358;2024-03-29T13:05:38;3.08;;;2.05;;
72275;SDS011;61204;49.980;8.358;2024-03-29T13:08:11;3.10;;;2.40;;
72275;SDS011;61204;49.980;8.358;2024-03-29T13:10:42;4.35;;;2.40;;
72275;SDS011;61204;49.980;8.358;2024-03-29T13:13:09;3.83;;;2.42;;
72275;SDS011;61204;49.980;8.358;2024-03-29T13:15:37;5.50;;;2.15;;
72275;SDS011;61204;49.980;8.358;2024-03-29T13:18:05;4.80;;;2.13;;
72275;SDS011;61204;49.980;8.358;2024-03-29T13:20:32;4.78;;;2.53;;
72275;SDS011;61204;49.980;8.358;2024-03-29T13:23:05;3.17;;;2.40;;
72275;SDS011;61204;49.980;8.358;2024-03-29T13:25:31;3.10;;;2.00;;
72275;SDS011;61204;49.980;8.358;2024-03-29T13:27:57;3.70;;;2.75;;
72275;SDS011;61204;49.980;8.358;2024-03-29T13:30:26;5.68;;;2.13;;
72275;SDS011;61204;49.980;8.358;2024-03-29T13:32:53;3.58;;;2.45;;
72275;SDS011;61204;49.980;8.358;2024-03-29T13:35:23;4.97;;;2.35;;
72275;SDS011;61204;49.980;8.358;2024-03-29T13:37:49;2.75;;;2.00;;
72275;SDS011;61204;49.980;8.358;2024-03-29T13:40:21;2.88;;;2.10;;
72275;SDS011;61204;49.980;8.358;2024-03-29T13:42:51;3.22;;;2.17;;
72275;SDS011;61204;49.980;8.358;2024-03-29T13:45:17;3.67;;;2.20;;
72275;SDS011;61204;49.980;8.358;2024-03-29T13:47:44;3.55;;;1.90;;
72275;SDS011;61204;49.980;8.358;2024-03-29T13:50:13;3.17;;;1.95;;
72275;SDS011;61204;49.980;8.358;2024-03-29T13:52:40;3.05;;;1.98;;
72275;SDS011;61204;49.980;8.358;2024-03-29T13:55:09;3.45;;;2.05;;
72275;SDS011;61204;49.980;8.358;2024-03-29T13:57:35;3.75;;;2.08;;
72275;SDS011;61204;49.980;8.358;2024-03-29T14:00:02;4.20;;;2.40;;
72275;SDS011;61204;49.980;8.358;2024-03-29T14:02:31;5.68;;;2.15;;
72275;SDS011;61204;49.980;8.358;2024-03-29T14:04:57;5.50;;;2.42;;
72275;SDS011;61204;49.980;8.358;2024-03-29T14:07:25;2.50;;;1.60;;
72275;SDS011;61204;49.980;8.358;2024-03-29T14:09:51;3.20;;;2.65;;
72275;SDS011;61204;49.980;8.358;2024-03-29T14:12:17;3.20;;;2.17;;
72275;SDS011;61204;49.980;8.358;2024-03-29T14:14:46;2.15;;;1.70;;
72275;SDS011;61204;49.980;8.358;2024-03-29T14:17:15;3.13;;;2.30;;
72275;SDS011;61204;49.980;8.358;2024-03-29T14:19:43;4.05;;;1.80;;
72275;SDS011;61204;49.980;8.358;2024-03-29T14:22:09;2.72;;;1.90;;
72275;SDS011;61204;49.980;8.358;2024-03-29T14:24:40;3.50;;;1.55;;
72275;SDS011;61204;49.980;8.358;2024-03-29T14:27:06;2.35;;;1.38;;
72275;SDS011;61204;49.980;8.358;2024-03-29T14:29:32;10.65;;;1.75;;
72275;SDS011;61204;49.980;8.358;2024-03-29T14:31:59;2.03;;;1.40;;
72275;SDS011;61204;49.980;8.358;2024-03-29T14:34:26;2.10;;;1.38;;
72275;SDS011;61204;49.980;8.358;2024-03-29T14:36:53;4.13;;;2.10;;
72275;SDS011;61204;49.980;8.358;2024-03-29T14:39:18;3.50;;;1.85;;
72275;SDS011;61204;49.980;8.358;2024-03-29T14:41:46;4.10;;;1.80;;
72275;SDS011;61204;49.980;8.358;2024-03-29T14:44:16;3.88;;;2.08;;
72275;SDS011;61204;49.980;8.358;2024-03-29T14:46:45;2.03;;;1.58;;
72275;SDS011;61204;49.980;8.358;2024-03-29T14:49:13;2.35;;;1.83;;
72275;SDS011;61204;49.980;8.358;2024-03-29T14:51:42;1.98;;;1.30;;
72275;SDS011;61204;49.980;8.358;2024-03-29T14:54:09;2.67;;;1.67;;
72275;SDS011;61204;49.980;8.358;2024-03-29T14:56:35;3.95;;;1.92;;